Time;durP1;ratioP1;P1;durP2;ratioP2;P2;SDS_P1;SDS_P2;PMS_P1;PMS_P2;Temp;Humidity;BMP_temperature;BMP_pressure;BME280_temperature;BME280_humidity;BME280_pressure;Samples;Min_cycle;Max_cycle;Signal;HPM_P1;HPM_P2
2023/09/05 00:00:19;;;;;;;;;;;20.70;51.70;;;16.85;80.82;95850.53;4992716;28;19928;-50
2023/09/05 00:02:48;;;;;;;;;;;20.70;51.80;;;16.80;80.78;95845.28;4991174;28;19909;-51
2023/09/05 00:05:14;;;;;;;;;;;20.70;51.80;;;16.77;81.11;95853.16;4989045;28;19939;-49
2023/09/05 00:07:40;;;;;;;;;;;20.60;51.80;;;16.71;81.66;95851.63;4992710;28;20310;-54
2023/09/05 00:10:12;;;;;;;;;;;20.60;51.90;;;16.62;81.95;95854.97;4991343;28;20031;-54
2023/09/05 00:12:43;;;;;;;;;;;20.50;51.90;;;16.51;82.39;95850.06;4992570;28;19936;-52
2023/09/05 00:15:12;;;;;;;;;;;20.40;52.00;;;16.41;83.12;95851.81;5006639;28;19909;-47
2023/09/05 00:17:40;;;;;;;;;;;20.40;52.00;;;16.30;83.68;95863.06;4993380;28;19916;-48
2023/09/05 00:20:07;;;;;;;;;;;20.30;52.10;;;16.19;84.18;95857.03;4991615;28;20500;-48
2023/09/05 00:22:34;;;;;;;;;;;20.20;52.10;;;16.11;84.16;95857.72;4984138;28;19917;-51
2023/09/05 00:24:59;;;;;;;;;;;20.10;52.80;;;16.01;84.57;95855.97;4991779;28;19909;-49
2023/09/05 00:27:25;;;;;;;;;;;20.10;52.30;;;15.96;85.16;95850.69;4981381;28;19910;-53
2023/09/05 00:29:51;;;;;;;;;;;20.00;52.30;;;15.88;85.49;95852.13;4990283;28;19932;-53
2023/09/05 00:32:21;;;;;;;;;;;19.90;53.00;;;15.82;86.14;95847.13;4991292;28;19917;-54
2023/09/05 00:34:47;;;;;;;;;;;19.80;52.50;;;15.72;86.75;95846.19;4990783;28;20000;-54
2023/09/05 00:37:22;;;;;;;;;;;19.80;52.60;;;15.66;87.43;95841.16;4992232;28;20584;-51
2023/09/05 00:39:48;;;;;;;;;;;19.70;52.70;;;15.59;88.30;95846.09;4990885;28;19973;-49
2023/09/05 00:42:15;;;;;;;;;;;19.60;52.80;;;15.53;88.46;95839.97;4992022;28;19913;-53
2023/09/05 00:44:42;;;;;;;;;;;19.60;52.90;;;15.53;88.51;95844.56;4990524;28;19918;-53
2023/09/05 00:47:13;;;;;;;;;;;19.50;52.90;;;15.48;88.71;95840.03;4991882;28;19914;-53
2023/09/05 00:49:46;;;;;;;;;;;19.40;52.90;;;15.37;89.71;95839.38;4991567;28;19909;-53
2023/09/05 00:52:14;;;;;;;;;;;19.40;52.90;;;15.30;90.09;95838.16;4990548;28;20333;-54
2023/09/05 00:54:40;;;;;;;;;;;19.30;53.00;;;15.22;91.56;95848.41;4989853;28;19941;-54
2023/09/05 00:57:11;;;;;;;;;;;19.20;53.00;;;15.16;92.14;95841.53;4982318;28;19961;-50
2023/09/05 00:59:37;;;;;;;;;;;19.20;53.10;;;15.11;91.99;95846.16;4990776;28;20352;-49
2023/09/05 01:02:03;;;;;;;;;;;19.10;53.10;;;15.07;91.29;95835.19;4990185;28;20015;-51
2023/09/05 01:04:33;;;;;;;;;;;19.00;53.20;;;15.03;91.93;95839.53;4980132;28;19992;-54
2023/09/05 01:07:20;;;;;;;;;;;19.00;53.20;;;14.94;92.54;95847.41;4991453;28;19909;-50
2023/09/05 01:10:13;;;;;;;;;;;18.90;53.30;;;14.84;93.42;95855.56;4989823;28;20368;-49
2023/09/05 01:12:39;;;;;;;;;;;18.90;53.40;;;14.78;93.51;95851.34;4981304;28;19917;-52
2023/09/05 01:15:07;;;;;;;;;;;18.80;53.40;;;14.70;94.36;95858.16;4989782;28;19909;-53
2023/09/05 01:17:33;;;;;;;;;;;18.70;54.10;;;14.66;93.95;95856.28;4992120;28;19917;-52
2023/09/05 01:20:03;;;;;;;;;;;18.70;53.60;;;14.57;95.57;95866.81;4994344;28;19936;-52
2023/09/05 01:22:54;;;;;;;;;;;18.60;53.60;;;14.51;96.40;95865.31;4984010;28;19917;-53
2023/09/05 01:25:21;;;;;;;;;;;18.60;53.70;;;14.47;96.56;95872.25;4981686;28;19917;-47
2023/09/05 01:27:48;;;;;;;;;;;18.50;53.80;;;14.44;96.56;95870.13;4992960;28;20548;-47
2023/09/05 01:30:14;;;;;;;;;;;18.50;53.80;;;14.34;96.91;95869.16;4994191;28;19913;-47
2023/09/05 01:32:40;;;;;;;;;;;18.40;53.90;;;14.26;97.42;95856.38;4992217;28;19916;-52
2023/09/05 01:35:06;;;;;;;;;;;18.40;54.00;;;14.17;98.20;95858.06;4993510;28;19913;-48
2023/09/05 01:37:32;;;;;;;;;;;18.30;54.00;;;13.96;99.97;95857.41;4993999;28;19956;-46
2023/09/05 01:39:58;;;;;;;;;;;18.20;54.10;;;13.79;100.00;95854.31;4992913;28;20007;-46
2023/09/05 01:42:24;;;;;;;;;;;18.10;54.10;;;13.64;100.00;95858.69;4994002;28;20073;-46
2023/09/05 01:44:50;;;;;;;;;;;18.10;54.30;;;13.68;100.00;95855.44;4998311;28;19951;-52
2023/09/05 01:47:15;;;;;;;;;;;18.00;54.40;;;13.66;100.00;95853.03;5000118;28;20271;-49
2023/09/05 01:49:41;;;;;;;;;;;17.90;54.60;;;13.69;100.00;95851.69;4993850;28;19968;-46
2023/09/05 01:52:07;;;;;;;;;;;17.90;54.80;;;13.70;100.00;95856.00;4992454;28;19991;-46
2023/09/05 01:54:32;;;;;;;;;;;17.90;54.90;;;13.74;100.00;95851.66;4993332;28;19913;-50
2023/09/05 01:56:58;;;;;;;;;;;17.80;55.00;;;13.87;100.00;95846.47;5030003;23;19928;-49
2023/09/05 01:59:24;;;;;;;;;;;17.80;55.30;;;13.99;100.00;95850.69;5032675;28;19913;-50
2023/09/05 02:01:49;;;;;;;;;;;17.80;55.40;;;14.08;100.00;95849.00;5024935;28;19962;-53
2023/09/05 02:04:15;;;;;;;;;;;17.80;55.40;;;14.12;100.00;95842.00;5027450;28;19912;-54
2023/09/05 02:06:41;;;;;;;;;;;17.90;55.60;;;14.15;100.00;95833.41;5020652;28;19937;-54
2023/09/05 02:09:07;;;;;;;;;;;17.90;55.60;;;14.18;99.89;95834.75;5032732;28;20378;-54
2023/09/05 02:11:33;;;;;;;;;;;17.90;55.50;;;14.19;99.27;95828.28;5033289;28;20472;-48
2023/09/05 02:13:59;;;;;;;;;;;18.00;55.60;;;14.19;99.26;95839.00;5023488;28;19917;-53
2023/09/05 02:16:24;;;;;;;;;;;18.00;55.50;;;14.24;98.47;95839.78;5032075;28;20012;-54
2023/09/05 02:18:51;;;;;;;;;;;18.00;55.50;;;14.28;98.29;95837.31;5033142;28;19967;-52
2023/09/05 02:21:18;;;;;;;;;;;18.10;55.60;;;14.33;97.92;95842.66;5032245;28;19922;-51
2023/09/05 02:23:44;;;;;;;;;;;18.10;55.60;;;14.33;97.28;95846.13;5033137;28;20337;-50
2023/09/05 02:26:10;;;;;;;;;;;18.10;55.50;;;14.37;97.14;95842.88;5032742;28;19963;-47
2023/09/05 02:28:37;;;;;;;;;;;18.10;55.60;;;14.43;96.48;95847.91;5032950;28;19909;-48
2023/09/05 02:31:08;;;;;;;;;;;18.20;55.80;;;14.49;95.93;95846.00;5030346;28;20383;-49
2023/09/05 02:33:36;;;;;;;;;;;18.20;55.80;;;14.49;95.28;95841.41;5024540;28;19959;-49
2023/09/05 02:36:21;;;;;;;;;;;18.30;55.80;;;14.51;95.28;95844.66;5033110;28;19916;-54
2023/09/05 02:38:47;;;;;;;;;;;18.30;55.80;;;14.48;95.24;95847.88;5032147;28;19913;-51
2023/09/05 02:41:14;;;;;;;;;;;18.30;55.70;;;14.45;95.10;95853.78;5033258;28;19909;-48
2023/09/05 02:43:41;;;;;;;;;;;18.30;55.60;;;14.39;94.49;95846.09;5032950;28;19916;-52
2023/09/05 02:46:07;;;;;;;;;;;18.30;55.60;;;14.37;94.06;95846.34;5032091;28;19912;-50
2023/09/05 02:48:39;;;;;;;;;;;18.30;55.70;;;14.35;93.98;95849.34;5033169;28;19909;-53
2023/09/05 02:51:11;;;;;;;;;;;18.30;55.70;;;14.34;93.88;95860.31;5024871;28;19909;-51
2023/09/05 02:53:38;;;;;;;;;;;18.30;55.70;;;14.32;94.17;95857.94;5031952;28;19954;-52
2023/09/05 02:56:04;;;;;;;;;;;18.30;55.70;;;14.29;94.26;95857.66;5031154;28;19917;-47
2023/09/05 02:58:31;;;;;;;;;;;18.20;55.70;;;14.27;94.69;95852.59;5031995;28;19913;-55
2023/09/05 03:01:10;;;;;;;;;;;18.20;55.60;;;14.19;95.13;95857.75;5032835;28;20399;-52
2023/09/05 03:03:35;;;;;;;;;;;18.20;55.70;;;14.14;95.74;95861.28;5029378;28;19920;-55
2023/09/05 03:06:27;;;;;;;;;;;18.10;55.60;;;14.04;96.42;95866.69;5032617;28;19909;-55
2023/09/05 03:08:53;;;;;;;;;;;18.10;55.60;;;14.00;96.87;95869.16;5020458;28;19915;-54
2023/09/05 03:11:19;;;;;;;;;;;18.10;55.70;;;13.94;97.20;95864.91;5032559;28;19908;-52
2023/09/05 03:13:47;;;;;;;;;;;18.00;55.70;;;13.89;97.47;95870.31;5032452;28;20371;-56
2023/09/05 03:16:14;;;;;;;;;;;18.00;55.80;;;13.81;98.49;95873.56;5031493;28;19919;-51
2023/09/05 03:18:40;;;;;;;;;;;17.90;55.80;;;13.65;100.00;95878.22;5032395;28;19913;-53
2023/09/05 03:21:06;;;;;;;;;;;17.80;55.70;;;13.58;100.00;95877.72;5031171;28;19936;-54
2023/09/05 03:23:31;;;;;;;;;;;17.80;55.70;;;13.57;100.00;95876.94;5032292;28;19908;-52
2023/09/05 03:25:58;;;;;;;;;;;17.70;55.70;;;13.54;99.87;95874.00;5032792;28;20278;-55
2023/09/05 03:28:24;;;;;;;;;;;17.70;55.80;;;13.47;99.37;95876.97;5022710;28;19915;-51
2023/09/05 03:30:50;;;;;;;;;;;17.60;55.80;;;13.43;99.07;95873.25;5032286;28;19909;-54
2023/09/05 03:33:16;;;;;;;;;;;17.60;55.90;;;13.36;99.49;95878.09;5024934;28;19909;-53
2023/09/05 03:35:42;;;;;;;;;;;17.50;55.90;;;13.29;99.71;95872.25;5027634;28;19957;-54
2023/09/05 03:38:09;;;;;;;;;;;17.40;56.00;;;13.18;100.00;95874.91;5030687;28;20256;-52
2023/09/05 03:40:35;;;;;;;;;;;17.40;56.10;;;13.16;100.00;95873.59;5028051;28;20181;-49
2023/09/05 03:43:01;;;;;;;;;;;17.30;56.10;;;13.12;100.00;95867.19;5030891;28;19909;-50
2023/09/05 03:45:30;;;;;;;;;;;17.30;56.20;;;13.05;100.00;95874.72;5030838;28;19916;-51
2023/09/05 03:47:56;;;;;;;;;;;17.20;56.20;;;13.00;100.00;95883.53;5031817;28;19916;-52
2023/09/05 03:50:23;;;;;;;;;;;17.10;56.30;;;12.93;100.00;95875.81;5028939;28;19909;-52
2023/09/05 03:52:49;;;;;;;;;;;17.10;56.40;;;12.89;100.00;95877.44;5022978;28;19909;-55
2023/09/05 03:55:16;;;;;;;;;;;17.10;56.50;;;12.81;100.00;95875.31;5031612;28;20289;-51
2023/09/05 03:57:42;;;;;;;;;;;17.00;56.50;;;12.85;100.00;95878.22;5028200;28;19991;-55
2023/09/05 04:00:10;;;;;;;;;;;17.00;56.60;;;12.87;100.00;95874.22;5024870;28;26921;-53
2023/09/05 04:02:36;;;;;;;;;;;17.00;56.80;;;12.89;100.00;95872.09;5027309;28;19995;-55
2023/09/05 04:05:02;;;;;;;;;;;17.00;56.80;;;12.87;100.00;95876.09;5020877;28;20011;-55
2023/09/05 04:07:27;;;;;;;;;;;16.90;56.80;;;12.85;100.00;95876.38;5031490;28;19912;-54
2023/09/05 04:09:53;;;;;;;;;;;16.90;56.90;;;12.78;100.00;95875.84;5030682;28;19912;-54
2023/09/05 04:12:19;;;;;;;;;;;16.90;56.90;;;12.73;100.00;95875.88;5031496;28;19909;-55
2023/09/05 04:14:44;;;;;;;;;;;16.90;56.90;;;12.65;100.00;95874.53;5030506;28;19912;-55
2023/09/05 04:17:10;;;;;;;;;;;16.80;56.90;;;12.59;100.00;95880.16;5031456;28;19915;-55
2023/09/05 04:19:36;;;;;;;;;;;16.80;56.90;;;12.53;100.00;95873.22;5031254;28;20272;-50
2023/09/05 04:22:02;;;;;;;;;;;16.80;57.00;;;12.52;100.00;95876.97;5030824;28;19970;-54
2023/09/05 04:24:28;;;;;;;;;;;16.70;57.00;;;12.47;100.00;95875.09;5031395;28;20015;-55
2023/09/05 04:26:54;;;;;;;;;;;16.70;57.10;;;12.43;100.00;95877.50;5030463;28;20003;-52
2023/09/05 04:29:20;;;;;;;;;;;16.60;57.20;;;12.39;100.00;95886.34;5031558;28;19909;-55
2023/09/05 04:31:45;;;;;;;;;;;16.60;57.20;;;12.41;100.00;95882.34;5031374;28;19962;-53
2023/09/05 04:34:11;;;;;;;;;;;16.60;57.30;;;12.42;100.00;95889.28;5023842;28;19962;-55
2023/09/05 04:36:37;;;;;;;;;;;16.60;57.40;;;12.41;100.00;95886.84;5031041;28;19956;-52
2023/09/05 04:39:05;;;;;;;;;;;16.60;57.40;;;12.41;100.00;95895.69;5030978;28;19913;-55
2023/09/05 04:41:31;;;;;;;;;;;16.60;57.50;;;12.41;100.00;95887.69;5031616;28;19948;-53
2023/09/05 04:43:57;;;;;;;;;;;16.50;57.50;;;12.43;100.00;95901.56;5031493;28;19955;-54
2023/09/05 04:46:23;;;;;;;;;;;16.50;57.50;;;12.37;100.00;95905.28;5030410;28;20354;-55
2023/09/05 04:48:49;;;;;;;;;;;16.50;57.50;;;12.32;100.00;95907.19;5031197;28;19909;-53
2023/09/05 04:51:15;;;;;;;;;;;16.50;57.50;;;12.31;100.00;95910.91;5030600;28;19916;-53
2023/09/05 04:53:41;;;;;;;;;;;16.50;57.60;;;12.34;100.00;95915.72;5035688;28;19908;-55
2023/09/05 04:56:07;;;;;;;;;;;16.40;57.60;;;12.31;100.00;95916.25;5034753;28;19917;-50
2023/09/05 04:58:33;;;;;;;;;;;16.40;57.60;;;12.33;100.00;95919.47;5034777;28;19917;-52
2023/09/05 05:01:03;;;;;;;;;;;16.40;57.70;;;12.36;100.00;95926.94;5035082;28;20272;-51
2023/09/05 05:03:33;;;;;;;;;;;16.50;57.80;;;12.38;100.00;95928.28;5033804;28;19909;-50
2023/09/05 05:06:00;;;;;;;;;;;16.50;57.80;;;12.36;100.00;95929.63;5033936;28;20314;-50
2023/09/05 05:08:26;;;;;;;;;;;16.50;57.80;;;12.35;100.00;95928.03;5034252;28;19912;-49
2023/09/05 05:10:52;;;;;;;;;;;16.50;57.80;;;12.35;100.00;95938.69;5034806;28;19917;-51
2023/09/05 05:13:20;;;;;;;;;;;16.50;57.80;;;12.40;100.00;95944.03;5035026;28;19908;-52
2023/09/05 05:15:47;;;;;;;;;;;16.50;57.80;;;12.43;100.00;95948.84;5033871;28;19916;-51
2023/09/05 05:18:13;;;;;;;;;;;16.60;57.90;;;12.57;100.00;95957.13;5034532;28;20007;-51
2023/09/05 05:20:40;;;;;;;;;;;16.60;58.00;;;12.71;100.00;95956.31;5033660;28;19916;-53
2023/09/05 05:23:06;;;;;;;;;;;16.70;58.10;;;12.85;100.00;95963.78;5035020;28;19920;-54
2023/09/05 05:25:35;;;;;;;;;;;16.80;58.10;;;13.01;100.00;95956.56;5034678;28;19917;-49
2023/09/05 05:28:00;;;;;;;;;;;16.90;58.20;;;13.16;100.00;95962.69;5029502;28;19909;-52
2023/09/05 05:30:26;;;;;;;;;;;17.00;58.20;;;13.22;100.00;95963.44;5034691;28;19916;-51
2023/09/05 05:32:52;;;;;;;;;;;17.10;58.10;;;13.21;100.00;95975.22;5031925;28;20403;-54
2023/09/05 05:35:18;;;;;;;;;;;17.20;58.10;;;13.19;100.00;95974.69;5034373;28;19909;-56
2023/09/05 05:37:43;;;;;;;;;;;17.20;57.90;;;13.14;100.00;95977.38;5034305;28;19909;-56
2023/09/05 05:40:11;;;;;;;;;;;17.20;57.90;;;13.08;100.00;95976.59;5032032;28;20363;-53
2023/09/05 05:42:37;;;;;;;;;;;17.30;57.80;;;13.06;100.00;95976.06;5031766;28;20015;-53
2023/09/05 05:45:03;;;;;;;;;;;17.40;57.70;;;13.06;100.00;95968.03;5031043;28;20263;-53
2023/09/05 05:47:31;;;;;;;;;;;17.40;57.60;;;13.07;100.00;95969.66;5032345;28;19913;-55
2023/09/05 05:49:57;;;;;;;;;;;17.50;57.60;;;13.23;100.00;95975.75;5033218;28;19943;-54
2023/09/05 05:52:23;;;;;;;;;;;17.70;57.70;;;13.49;100.00;95963.13;4997603;28;23333;-51
2023/09/05 05:54:49;;;;;;;;;;;17.90;57.60;;;13.76;100.00;95968.13;4956865;28;19910;-56
2023/09/05 05:57:15;;;;;;;;;;;18.20;57.70;;;14.03;100.00;95967.69;5002064;28;19921;-51
2023/09/05 05:59:40;;;;;;;;;;;18.60;57.70;;;14.37;100.00;95966.94;5013984;28;19917;-50
2023/09/05 06:02:07;;;;;;;;;;;18.90;57.60;;;14.69;100.00;95966.44;5003819;28;19909;-50
2023/09/05 06:04:33;;;;;;;;;;;19.30;58.00;;;14.99;100.00;95972.66;5009797;28;19917;-56
2023/09/05 06:06:58;;;;;;;;;;;19.70;57.20;;;15.32;97.98;95980.88;5004909;28;20279;-57
2023/09/05 06:09:24;;;;;;;;;;;20.10;57.00;;;15.70;95.64;95982.66;5012907;28;19916;-56
2023/09/05 06:11:50;;;;;;;;;;;20.50;56.70;;;16.06;92.85;95986.75;5029383;28;19996;-50
2023/09/05 06:14:16;;;;;;;;;;;20.90;56.40;;;16.29;91.07;95983.19;5000253;28;19909;-56
2023/09/05 06:16:47;;;;;;;;;;;21.30;56.10;;;16.63;87.47;95979.47;5022718;28;19987;-56
2023/09/05 06:19:14;;;;;;;;;;;21.60;55.70;;;16.96;83.84;95983.00;5000432;28;19920;-53
2023/09/05 06:21:41;;;;;;;;;;;21.90;55.20;;;17.22;81.44;95980.66;5000841;28;20378;-57
2023/09/05 06:24:07;;;;;;;;;;;22.20;54.80;;;17.49;80.73;95979.09;5010785;28;19909;-54
2023/09/05 06:26:33;;;;;;;;;;;22.50;54.40;;;17.73;78.25;95970.81;5027795;28;20467;-56
2023/09/05 06:28:59;;;;;;;;;;;22.80;54.20;;;17.94;77.21;95985.50;5000131;28;20107;-52
2023/09/05 06:31:24;;;;;;;;;;;23.00;53.80;;;18.12;75.76;95983.78;5003157;28;20011;-56
2023/09/05 06:33:50;;;;;;;;;;;23.20;53.40;;;18.34;74.66;95982.22;5005785;28;19909;-54
2023/09/05 06:36:16;;;;;;;;;;;23.50;53.10;;;18.52;73.46;95986.66;5004176;28;19909;-50
2023/09/05 06:38:41;;;;;;;;;;;23.70;52.80;;;18.72;71.87;95983.50;4996370;28;20425;-53
2023/09/05 06:41:11;;;;;;;;;;;23.90;52.50;;;18.91;70.65;95983.31;4993953;28;20360;-52
2023/09/05 06:43:37;;;;;;;;;;;24.10;52.20;;;19.15;69.85;95983.00;5007028;28;20264;-52
2023/09/05 06:46:07;;;;;;;;;;;24.30;52.00;;;19.38;68.64;95982.94;4997103;28;20287;-48
2023/09/05 06:48:35;;;;;;;;;;;24.50;51.80;;;19.64;67.70;95978.47;5007031;28;19916;-49
2023/09/05 06:51:01;;;;;;;;;;;24.70;51.40;;;19.92;65.96;95980.94;5009687;28;20379;-48
2023/09/05 06:53:31;;;;;;;;;;;24.90;51.20;;;20.18;65.07;95982.88;5011364;28;19922;-51
2023/09/05 06:55:57;;;;;;;;;;;25.20;51.00;;;20.38;64.28;95979.59;5004597;28;19968;-54
2023/09/05 06:58:25;;;;;;;;;;;25.40;50.70;;;20.66;63.10;95980.09;5011482;28;19941;-54
2023/09/05 07:00:55;;;;;;;;;;;25.70;50.50;;;20.82;61.62;95974.97;4999778;28;19909;-51
2023/09/05 07:03:25;;;;;;;;;;;25.90;50.20;;;21.03;61.11;95977.84;5013776;28;19916;-53
2023/09/05 07:05:53;;;;;;;;;;;26.10;49.90;;;20.90;60.01;95982.31;4998726;28;19909;-55
2023/09/05 07:08:19;;;;;;;;;;;26.40;49.60;;;21.02;60.53;95977.00;5005192;28;19909;-50
2023/09/05 07:10:48;;;;;;;;;;;26.50;49.10;;;21.24;59.74;95980.63;4999436;28;19921;-54
2023/09/05 07:13:14;;;;;;;;;;;26.70;48.80;;;21.48;58.83;95989.03;5004359;28;19916;-53
2023/09/05 07:15:40;;;;;;;;;;;26.80;48.50;;;21.73;58.37;95974.91;5004580;28;19909;-52
2023/09/05 07:18:05;;;;;;;;;;;27.10;48.40;;;21.86;56.93;95979.31;5001488;28;19913;-55
2023/09/05 07:20:32;;;;;;;;;;;27.20;48.00;;;22.10;55.90;95981.41;4997500;28;19913;-53
2023/09/05 07:22:58;;;;;;;;;;;27.40;47.80;;;22.34;54.96;95981.59;5001230;28;19932;-55
2023/09/05 07:25:24;;;;;;;;;;;27.60;47.60;;;22.59;54.53;95984.44;4999349;28;20364;-54
2023/09/05 07:27:49;;;;;;;;;;;27.80;47.40;;;22.70;51.68;95979.41;5003411;28;20414;-53
2023/09/05 07:30:16;;;;;;;;;;;28.00;47.00;;;22.73;52.56;95979.53;5006235;28;19909;-52
2023/09/05 07:32:43;;;;;;;;;;;28.20;46.60;;;22.68;52.40;95978.94;5000584;28;19909;-53
2023/09/05 07:35:09;;;;;;;;;;;28.40;46.40;;;22.75;50.87;95984.63;4999173;28;19990;-54
2023/09/05 07:37:36;;;;;;;;;;;28.60;46.20;;;22.75;51.77;95981.91;5003501;28;20392;-54
2023/09/05 07:40:05;;;;;;;;;;;28.70;45.90;;;22.89;51.73;95984.34;5007137;28;19928;-51
2023/09/05 07:42:30;;;;;;;;;;;28.90;45.60;;;;;;5003183;28;19909;-50
2023/09/05 07:44:56;;;;;;;;;;;29.00;45.30;;;23.33;50.65;95985.53;5004923;28;19915;-53
2023/09/05 07:47:22;;;;;;;;;;;29.20;45.00;;;23.53;51.36;95986.56;5001510;28;19916;-55
2023/09/05 07:49:48;;;;;;;;;;;29.30;44.70;;;23.65;50.93;95996.69;4998991;28;19909;-55
2023/09/05 07:52:13;;;;;;;;;;;29.40;44.50;;;23.95;49.76;95989.94;5018378;28;19958;-50
2023/09/05 07:54:39;;;;;;;;;;;29.60;44.40;;;24.30;49.77;95996.81;4999122;28;20280;-50
2023/09/05 07:57:05;;;;;;;;;;;29.80;44.20;;;24.65;48.63;95994.38;5017589;23;19983;-50
2023/09/05 07:59:33;;;;;;;;;;;30.00;44.00;;;24.60;48.31;95994.59;5017505;28;20302;-50
2023/09/05 08:02:00;;;;;;;;;;;30.10;43.60;;;24.50;47.91;96000.53;5004762;28;19916;-50
2023/09/05 08:04:26;;;;;;;;;;;30.20;43.30;;;24.51;47.96;95994.78;4995796;28;20343;-47
2023/09/05 08:06:52;;;;;;;;;;;30.30;42.90;;;24.79;48.29;95994.81;4988191;28;19909;-47
2023/09/05 08:09:18;;;;;;;;;;;30.50;42.80;;;24.86;47.59;95991.47;4997611;28;19909;-48
2023/09/05 08:11:43;;;;;;;;;;;30.60;42.50;;;24.92;47.69;95995.53;4985177;28;20526;-48
2023/09/05 08:14:09;;;;;;;;;;;30.70;42.20;;;25.04;46.76;96000.94;4991457;28;19991;-48
2023/09/05 08:16:37;;;;;;;;;;;30.70;41.90;;;25.18;46.75;95999.78;4962393;28;19937;-47
2023/09/05 08:19:04;;;;;;;;;;;30.80;41.80;;;25.30;46.88;95988.81;4969042;28;19918;-46
2023/09/05 08:21:30;;;;;;;;;;;31.00;41.70;;;25.46;45.90;95992.34;4970821;28;19921;-50
2023/09/05 08:23:55;;;;;;;;;;;31.10;41.50;;;25.60;45.97;95994.63;4988772;28;19910;-49
2023/09/05 08:26:21;;;;;;;;;;;31.20;41.20;;;25.58;45.98;95991.47;4989327;28;19913;-48
2023/09/05 08:28:47;;;;;;;;;;;31.40;41.10;;;25.62;45.80;95984.16;4992804;28;20372;-48
2023/09/05 08:31:14;;;;;;;;;;;31.40;40.80;;;25.61;46.73;95990.78;4995137;28;20409;-47
2023/09/05 08:33:39;;;;;;;;;;;31.50;40.70;;;25.86;45.76;95991.41;4986181;28;19914;-47
2023/09/05 08:36:08;;;;;;;;;;;31.70;40.70;;;26.06;46.09;95995.78;4988858;28;20479;-50
2023/09/05 08:38:37;;;;;;;;;;;31.80;40.50;;;26.36;45.27;95992.56;4988339;28;19925;-48
2023/09/05 08:41:06;;;;;;;;;;;32.00;40.40;;;26.45;44.60;95990.44;4976021;28;19917;-46
2023/09/05 08:43:34;;;;;;;;;;;32.10;40.20;;;26.54;44.80;95990.22;4975592;28;19914;-47
2023/09/05 08:46:02;;;;;;;;;;;32.30;40.00;;;26.72;44.71;95987.88;4985960;28;20355;-47
2023/09/05 08:48:29;;;;;;;;;;;32.40;39.80;;;26.59;44.97;95989.97;4994784;28;20304;-47
2023/09/05 08:50:58;;;;;;;;;;;32.60;39.70;;;26.55;44.48;95985.59;4987832;28;20395;-49
2023/09/05 08:53:35;;;;;;;;;;;32.70;39.50;;;26.51;45.60;95983.56;4992354;28;19909;-48
2023/09/05 08:56:01;;;;;;;;;;;32.70;39.20;;;26.79;44.12;95989.97;4993462;28;19921;-46
2023/09/05 08:58:29;;;;;;;;;;;32.90;39.30;;;26.74;45.20;95988.34;4983345;28;19920;-47
2023/09/05 09:00:55;;;;;;;;;;;33.00;39.10;;;26.97;44.96;95982.94;4994695;28;19910;-47
2023/09/05 09:03:21;;;;;;;;;;;33.10;38.90;;;26.96;44.25;95975.88;4981920;28;19917;-47
2023/09/05 09:05:49;;;;;;;;;;;33.20;38.70;;;26.72;44.65;95982.41;4995130;28;19909;-50
2023/09/05 09:08:15;;;;;;;;;;;33.30;38.50;;;26.66;45.47;95972.94;4994624;28;19960;-47
2023/09/05 09:10:41;;;;;;;;;;;33.40;38.50;;;26.89;44.59;95971.06;4975225;28;19916;-49
2023/09/05 09:13:17;;;;;;;;;;;33.40;38.40;;;27.05;44.46;95970.19;4991428;28;20327;-48
2023/09/05 09:15:45;;;;;;;;;;;33.60;38.20;;;27.43;44.37;95967.41;4982538;28;19914;-49
2023/09/05 09:18:13;;;;;;;;;;;33.60;38.00;;;27.62;43.07;95963.81;4986918;28;19913;-47
2023/09/05 09:20:49;;;;;;;;;;;33.80;38.00;;;28.01;43.39;95971.88;4991050;28;19918;-48
2023/09/05 09:23:25;;;;;;;;;;;34.00;38.60;;;27.79;42.53;95961.78;4968576;28;19919;-50
2023/09/05 09:25:54;;;;;;;;;;;34.20;37.80;;;27.54;43.01;95956.63;4994428;28;19914;-48
2023/09/05 09:28:29;;;;;;;;;;;34.30;37.60;;;28.09;43.48;95962.63;4976035;28;19991;-49
2023/09/05 09:31:09;;;;;;;;;;;34.40;37.50;;;28.34;42.48;95952.03;4974864;28;20487;-49
2023/09/05 09:33:35;;;;;;;;;;;34.70;37.40;;;28.54;41.60;95957.41;4981827;28;20392;-47
2023/09/05 09:36:00;;;;;;;;;;;34.90;37.10;;;28.77;41.82;95949.88;4988814;28;19909;-49
2023/09/05 09:38:28;;;;;;;;;;;35.10;37.10;;;28.55;41.48;95948.03;4981726;28;19963;-47
2023/09/05 09:40:55;;;;;;;;;;;35.20;36.90;;;28.86;41.46;95951.53;4992700;28;20284;-47
2023/09/05 09:43:21;;;;;;;;;;;35.30;36.80;;;29.12;40.80;95946.00;4993756;28;20004;-47
2023/09/05 09:45:47;;;;;;;;;;;35.50;36.70;;;29.32;40.98;95957.53;4986939;28;20439;-47
2023/09/05 09:48:18;;;;;;;;;;;35.70;36.40;;;29.02;41.13;95949.41;4994132;28;20061;-47
2023/09/05 09:50:45;;;;;;;;;;;35.80;36.30;;;28.53;41.76;95950.34;4990172;28;20013;-47
2023/09/05 09:53:21;;;;;;;;;;;35.80;36.00;;;28.94;40.49;95937.53;4974096;28;19955;-48
2023/09/05 09:55:53;;;;;;;;;;;35.80;35.90;;;29.39;40.53;95938.41;4974239;28;19910;-49
2023/09/05 09:58:22;;;;;;;;;;;35.90;35.70;;;29.51;39.85;95934.59;4987522;28;19909;-48
2023/09/05 10:00:50;;;;;;;;;;;36.00;35.60;;;29.74;39.39;95929.72;4974803;28;19913;-46
2023/09/05 10:03:16;;;;;;;;;;;36.10;35.40;;;29.95;38.71;95931.03;4964676;28;19910;-47
2023/09/05 10:05:43;;;;;;;;;;;36.20;35.40;;;29.33;40.55;95931.69;4988147;28;20376;-47
2023/09/05 10:08:12;;;;;;;;;;;36.30;35.10;;;29.43;39.91;95924.75;4993576;28;19992;-47
2023/09/05 10:10:42;;;;;;;;;;;36.30;34.90;;;29.49;40.33;95921.28;4979063;28;19963;-49
2023/09/05 10:13:11;;;;;;;;;;;36.30;34.90;;;29.50;39.73;95919.31;4973784;28;19964;-47
2023/09/05 10:15:39;;;;;;;;;;;36.40;34.70;;;29.33;39.61;95922.66;4975094;28;19916;-48
2023/09/05 10:18:09;;;;;;;;;;;36.40;34.40;;;29.52;39.08;95922.44;4993324;28;20004;-47
2023/09/05 10:20:39;;;;;;;;;;;36.40;34.40;;;29.65;39.99;95912.81;4989379;28;19922;-47
2023/09/05 10:23:06;;;;;;;;;;;36.50;34.30;;;29.85;39.56;95916.06;4973779;28;19964;-47
2023/09/05 10:25:37;;;;;;;;;;;36.60;34.20;;;30.09;38.97;95936.66;4973805;28;19913;-50
2023/09/05 10:28:04;;;;;;;;;;;36.70;34.20;;;30.36;39.20;95926.22;4980743;28;20403;-47
2023/09/05 10:30:37;;;;;;;;;;;36.80;34.20;;;30.56;38.09;95926.72;4991014;28;19916;-51
2023/09/05 10:33:03;;;;;;;;;;;37.00;34.20;;;30.45;38.07;95923.13;4978332;28;19914;-52
2023/09/05 10:35:31;;;;;;;;;;;37.10;33.90;;;30.35;38.27;95912.88;4990389;28;19915;-47
2023/09/05 10:38:02;;;;;;;;;;;37.30;33.80;;;29.88;39.47;95915.31;4992957;28;19917;-47
2023/09/05 10:40:39;;;;;;;;;;;37.40;33.60;;;29.87;39.37;95910.22;4980310;28;19960;-49
2023/09/05 10:43:20;;;;;;;;;;;37.30;33.40;;;29.92;38.48;95916.13;4992538;28;20020;-50
2023/09/05 10:45:56;;;;;;;;;;;37.40;33.40;;;30.04;38.90;95917.78;4978496;28;19969;-49
2023/09/05 10:48:40;;;;;;;;;;;37.40;33.20;;;30.07;38.72;95903.28;4973601;28;19909;-48
2023/09/05 10:51:15;;;;;;;;;;;37.40;33.00;;;30.24;39.12;95896.31;4971934;28;20295;-48
2023/09/05 10:53:44;;;;;;;;;;;37.40;32.90;;;29.89;39.79;95899.63;4992893;28;19909;-46
2023/09/05 10:56:49;;;;;;;;;;;37.50;32.70;;;29.97;39.62;95896.56;4992276;28;19917;-48
2023/09/05 10:59:29;;;;;;;;;;;37.50;32.60;;;30.22;38.79;95892.41;4980732;28;19917;-47
2023/09/05 11:02:06;;;;;;;;;;;37.50;32.60;;;30.37;39.36;95894.06;4992150;28;19909;-49
2023/09/05 11:04:34;;;;;;;;;;;37.60;32.60;;;30.17;38.96;95894.31;4978238;28;20327;-48
2023/09/05 11:07:13;;;;;;;;;;;37.70;32.40;;;30.06;39.18;95893.47;4972286;28;20440;-47
2023/09/05 11:09:41;;;;;;;;;;;37.70;32.20;;;30.25;39.03;95881.44;4977378;28;20376;-48
2023/09/05 11:12:09;;;;;;;;;;;37.70;32.20;;;30.21;38.33;95888.88;4975894;28;19916;-48
2023/09/05 11:14:36;;;;;;;;;;;37.80;32.20;;;30.30;38.58;95877.53;4974046;28;20508;-48
2023/09/05 11:17:03;;;;;;;;;;;37.80;32.00;;;30.40;39.61;95877.59;4987250;28;20275;-49